Monday, June 26, 2017, 1:10 PM EDT
Back to Local

KEEN, Keene, Dillant-hopkins Airport

Location: Keene, NH, United States Lat: 42.9
Local Time: 1:10 PM EDT (17:10 GMT) Lon: -72.267
Time Zone: US/Eastern Elev: 488 ft

Show me the last for .
Show Decoded

2017-06-26 12:56 METAR KEEN 261656Z AUTO VRB06KT 10SM BKN055 OVC070 23/10 A2998 RMK AO2 SLP166
                 T02280100 =
2017-06-26 11:56 METAR KEEN 261556Z AUTO VRB05KT 10SM BKN055 BKN070 22/09 A2998 RMK AO2 SLP167
                 T02170094 =
2017-06-26 10:56 METAR KEEN 261456Z AUTO VRB06KT 10SM BKN050 21/09 A2999 RMK AO2 SLP170 T02110094
                 51002 =
2017-06-26 09:56 METAR KEEN 261356Z AUTO 29007KT 10SM FEW047 20/10 A2999 RMK AO2 SLP169 T02000100
                 =
2017-06-26 08:56 METAR KEEN 261256Z AUTO 30006KT 10SM CLR 18/09 A2999 RMK AO2 SLP172 T01830094 =
2017-06-26 07:56 METAR KEEN 261156Z AUTO VRB05KT 10SM CLR 17/11 A2999 RMK AO2 SLP169 7////
                 T01720106 10172 20117 51008 =
2017-06-26 06:56 METAR KEEN 261056Z AUTO 17004KT 10SM CLR 14/11 A2998 RMK AO2 SLP166 T01390111 =
2017-06-26 05:56 METAR KEEN 260956Z AUTO 00000KT 10SM CLR 12/11 A2997 RMK AO2 SLP165 T01220106 =
2017-06-26 04:56 METAR KEEN 260856Z AUTO 00000KT 10SM CLR 13/11 A2996 RMK AO2 SLP160 T01280111
                 53002 =
2017-06-26 03:56 METAR KEEN 260756Z AUTO 00000KT 10SM SCT120 14/12 A2995 RMK AO2 SLP157 T01440117
                 =
2017-06-26 02:56 METAR KEEN 260656Z AUTO 00000KT 10SM OVC100 16/12 A2995 RMK AO2 SLP155 T01560117
                 =
2017-06-26 01:56 METAR KEEN 260556Z AUTO 00000KT 10SM BKN100 16/13 A2995 RMK AO2 SLP157 60000
                 T01560128 10217 20150 51002 =
2017-06-26 00:56 METAR KEEN 260456Z AUTO 19003KT 10SM BKN090 OVC110 17/12 A2995 RMK AO2 RAB33E48
                 SLP155 P0000 T01670122 402670122 =
2017-06-25 23:56 METAR KEEN 260356Z AUTO 18003KT 10SM SCT080 BKN110 18/11 A2997 RMK AO2 SLP163
                 T01780111 =
2017-06-25 22:56 METAR KEEN 260256Z AUTO 19005KT 10SM SCT085 BKN100 18/10 A2995 RMK AO2 SLP155
                 T01830100 51016 =
2017-06-25 21:56 METAR KEEN 260156Z AUTO 16004KT 10SM OVC080 19/11 A2994 RMK AO2 SLP151 T01890111
                 =
2017-06-25 20:56 METAR KEEN 260056Z AUTO 29009KT 250V330 10SM OVC090 21/12 A2993 RMK AO2 SLP150
                 T02060117 =
2017-06-25 19:56 METAR KEEN 252356Z AUTO 19004KT 10SM 21/14 A2990 RMK AO2 LTG DSNT SE AND S
                 SLP140 6//// T02060144 10267 20206 53009 =
2017-06-25 18:56 METAR KEEN 252256Z AUTO 16004KT 10SM BKN070 BKN085 25/12 A2989 RMK AO2 TSB16E35
                 SLP135 T02500117 =
2017-06-25 18:41 METAR KEEN 252241Z AUTO 26006KT 10SM BKN070 BKN085 26/13 A2988 RMK AO2 TSB16E35
                 =
2017-06-25 18:22 METAR KEEN 252222Z AUTO 20007KT 10SM VCTS SCT080 SCT090 24/12 A2987 RMK AO2
                 TSB16 =
2017-06-25 17:56 METAR KEEN 252156Z AUTO 20008KT 10SM BKN075 26/12 A2987 RMK AO2 LTG DSNT SW
                 SLP129 T02560117 =
2017-06-25 16:56 METAR KEEN 252056Z AUTO VRB05KT 10SM CLR 26/11 A2987 RMK AO2 RAB10E26 SLP131
                 P0000 60000 T02610111 56013 =
2017-06-25 15:56 METAR KEEN 251956Z AUTO 27007KT 10SM BKN070 27/11 A2988 RMK AO2 SLP131 T02670106
                 =
2017-06-25 14:56 METAR KEEN 251856Z AUTO 24007KT 10SM FEW065 26/11 A2990 RMK AO2 SLP138 T02610111
                 =
2017-06-25 13:56 METAR KEEN 251756Z AUTO 27007G14KT 10SM FEW065 26/11 A2991 RMK AO2 SLP143
                 T02560111 10261 20178 56016 =

Support USWX by starting your Amazon purchase here.